sensor_id;sensor_type;location;lat;lon;timestamp;P1;durP1;ratioP1;P2;durP2;ratioP2
78989;SDS011;68390;52.130;21.218;2023-04-30T00:02:00;19.33;;;14.88;;
78989;SDS011;68390;52.130;21.218;2023-04-30T00:04:25;24.55;;;13.43;;
78989;SDS011;68390;52.130;21.218;2023-04-30T00:06:51;21.10;;;12.00;;
78989;SDS011;68390;52.130;21.218;2023-04-30T00:09:16;18.48;;;12.07;;
78989;SDS011;68390;52.130;21.218;2023-04-30T00:11:42;21.10;;;12.85;;
78989;SDS011;68390;52.130;21.218;2023-04-30T00:14:07;18.30;;;11.73;;
78989;SDS011;68390;52.130;21.218;2023-04-30T00:16:34;19.52;;;13.60;;
78989;SDS011;68390;52.130;21.218;2023-04-30T00:18:59;20.08;;;12.35;;
78989;SDS011;68390;52.130;21.218;2023-04-30T00:21:24;19.52;;;13.10;;
78989;SDS011;68390;52.130;21.218;2023-04-30T00:23:50;20.48;;;12.48;;
78989;SDS011;68390;52.130;21.218;2023-04-30T00:26:15;21.73;;;14.18;;
78989;SDS011;68390;52.130;21.218;2023-04-30T00:28:41;20.35;;;14.23;;
78989;SDS011;68390;52.130;21.218;2023-04-30T00:31:06;23.70;;;14.75;;
78989;SDS011;68390;52.130;21.218;2023-04-30T00:33:33;20.27;;;13.60;;
78989;SDS011;68390;52.130;21.218;2023-04-30T00:35:59;21.95;;;14.63;;
78989;SDS011;68390;52.130;21.218;2023-04-30T00:38:25;22.45;;;13.73;;
78989;SDS011;68390;52.130;21.218;2023-04-30T00:40:50;22.45;;;15.88;;
78989;SDS011;68390;52.130;21.218;2023-04-30T00:43:16;22.30;;;14.13;;
78989;SDS011;68390;52.130;21.218;2023-04-30T00:45:42;24.42;;;15.60;;
78989;SDS011;68390;52.130;21.218;2023-04-30T00:48:07;26.88;;;15.68;;
78989;SDS011;68390;52.130;21.218;2023-04-30T00:50:34;20.55;;;13.23;;
78989;SDS011;68390;52.130;21.218;2023-04-30T00:53:01;20.75;;;14.77;;
78989;SDS011;68390;52.130;21.218;2023-04-30T00:55:26;26.10;;;15.32;;
78989;SDS011;68390;52.130;21.218;2023-04-30T00:57:52;23.63;;;16.17;;
78989;SDS011;68390;52.130;21.218;2023-04-30T01:00:18;24.27;;;14.68;;
78989;SDS011;68390;52.130;21.218;2023-04-30T01:02:43;27.40;;;17.13;;
78989;SDS011;68390;52.130;21.218;2023-04-30T01:05:09;23.08;;;14.27;;
78989;SDS011;68390;52.130;21.218;2023-04-30T01:07:35;21.65;;;13.30;;
78989;SDS011;68390;52.130;21.218;2023-04-30T01:10:03;18.30;;;11.52;;
78989;SDS011;68390;52.130;21.218;2023-04-30T01:12:43;18.75;;;13.70;;
78989;SDS011;68390;52.130;21.218;2023-04-30T01:15:35;20.67;;;12.88;;
78989;SDS011;68390;52.130;21.218;2023-04-30T01:21:03;20.33;;;14.23;;
78989;SDS011;68390;52.130;21.218;2023-04-30T01:29:01;23.63;;;15.80;;
78989;SDS011;68390;52.130;21.218;2023-04-30T01:31:28;23.08;;;15.85;;
78989;SDS011;68390;52.130;21.218;2023-04-30T01:33:53;28.85;;;16.02;;
78989;SDS011;68390;52.130;21.218;2023-04-30T01:39:14;22.92;;;16.00;;
78989;SDS011;68390;52.130;21.218;2023-04-30T01:47:19;27.05;;;17.48;;
78989;SDS011;68390;52.130;21.218;2023-04-30T01:52:59;24.23;;;15.70;;
78989;SDS011;68390;52.130;21.218;2023-04-30T01:55:27;19.20;;;12.60;;
78989;SDS011;68390;52.130;21.218;2023-04-30T01:58:12;22.50;;;13.82;;
78989;SDS011;68390;52.130;21.218;2023-04-30T02:00:39;24.25;;;14.57;;
78989;SDS011;68390;52.130;21.218;2023-04-30T02:03:05;24.08;;;16.85;;
78989;SDS011;68390;52.130;21.218;2023-04-30T02:05:30;27.02;;;16.42;;
78989;SDS011;68390;52.130;21.218;2023-04-30T02:07:56;24.58;;;16.65;;
78989;SDS011;68390;52.130;21.218;2023-04-30T02:10:23;25.65;;;16.95;;
78989;SDS011;68390;52.130;21.218;2023-04-30T02:12:50;19.67;;;12.80;;
78989;SDS011;68390;52.130;21.218;2023-04-30T02:15:18;21.45;;;14.57;;
78989;SDS011;68390;52.130;21.218;2023-04-30T02:17:43;19.48;;;13.43;;
78989;SDS011;68390;52.130;21.218;2023-04-30T02:20:09;21.55;;;14.82;;
78989;SDS011;68390;52.130;21.218;2023-04-30T02:22:35;23.95;;;14.38;;
78989;SDS011;68390;52.130;21.218;2023-04-30T02:25:01;20.33;;;14.98;;
78989;SDS011;68390;52.130;21.218;2023-04-30T02:27:28;24.05;;;15.15;;
78989;SDS011;68390;52.130;21.218;2023-04-30T02:29:55;27.65;;;16.45;;
78989;SDS011;68390;52.130;21.218;2023-04-30T02:32:21;28.02;;;18.08;;
78989;SDS011;68390;52.130;21.218;2023-04-30T02:34:47;24.67;;;16.92;;
78989;SDS011;68390;52.130;21.218;2023-04-30T02:37:12;21.30;;;15.20;;
78989;SDS011;68390;52.130;21.218;2023-04-30T02:39:38;22.58;;;15.15;;
78989;SDS011;68390;52.130;21.218;2023-04-30T02:42:04;22.70;;;15.90;;
78989;SDS011;68390;52.130;21.218;2023-04-30T02:44:31;26.02;;;16.48;;
78989;SDS011;68390;52.130;21.218;2023-04-30T02:46:56;27.85;;;17.50;;
78989;SDS011;68390;52.130;21.218;2023-04-30T02:49:22;21.08;;;12.95;;
78989;SDS011;68390;52.130;21.218;2023-04-30T02:51:47;23.25;;;15.45;;
78989;SDS011;68390;52.130;21.218;2023-04-30T02:54:13;22.02;;;16.15;;
78989;SDS011;68390;52.130;21.218;2023-04-30T02:56:38;21.00;;;16.00;;
78989;SDS011;68390;52.130;21.218;2023-04-30T02:59:04;26.85;;;17.20;;
78989;SDS011;68390;52.130;21.218;2023-04-30T03:01:29;24.30;;;16.10;;
78989;SDS011;68390;52.130;21.218;2023-04-30T03:03:55;24.27;;;16.35;;
78989;SDS011;68390;52.130;21.218;2023-04-30T03:06:20;21.92;;;14.20;;
78989;SDS011;68390;52.130;21.218;2023-04-30T03:08:46;23.20;;;15.95;;
78989;SDS011;68390;52.130;21.218;2023-04-30T03:11:12;30.30;;;19.98;;
78989;SDS011;68390;52.130;21.218;2023-04-30T03:13:38;28.02;;;18.05;;
78989;SDS011;68390;52.130;21.218;2023-04-30T03:16:03;25.60;;;18.83;;
78989;SDS011;68390;52.130;21.218;2023-04-30T03:18:29;53.72;;;19.90;;
78989;SDS011;68390;52.130;21.218;2023-04-30T03:20:55;103.72;;;25.98;;
78989;SDS011;68390;52.130;21.218;2023-04-30T03:23:21;32.60;;;20.67;;
78989;SDS011;68390;52.130;21.218;2023-04-30T03:25:46;33.70;;;22.95;;
78989;SDS011;68390;52.130;21.218;2023-04-30T03:28:13;32.72;;;23.33;;
78989;SDS011;68390;52.130;21.218;2023-04-30T03:30:39;30.42;;;21.55;;
78989;SDS011;68390;52.130;21.218;2023-04-30T03:33:05;34.30;;;23.25;;
78989;SDS011;68390;52.130;21.218;2023-04-30T03:35:31;39.92;;;24.95;;
78989;SDS011;68390;52.130;21.218;2023-04-30T03:37:58;34.47;;;23.52;;
78989;SDS011;68390;52.130;21.218;2023-04-30T03:40:24;41.97;;;25.77;;
78989;SDS011;68390;52.130;21.218;2023-04-30T03:42:49;42.72;;;25.45;;
78989;SDS011;68390;52.130;21.218;2023-04-30T03:45:15;44.53;;;25.30;;
78989;SDS011;68390;52.130;21.218;2023-04-30T03:47:41;40.90;;;24.95;;
78989;SDS011;68390;52.130;21.218;2023-04-30T03:50:07;58.78;;;25.77;;
78989;SDS011;68390;52.130;21.218;2023-04-30T03:52:33;38.85;;;24.30;;
78989;SDS011;68390;52.130;21.218;2023-04-30T03:55:00;41.53;;;24.48;;
78989;SDS011;68390;52.130;21.218;2023-04-30T03:57:27;45.38;;;25.52;;
78989;SDS011;68390;52.130;21.218;2023-04-30T03:59:52;41.75;;;24.40;;
78989;SDS011;68390;52.130;21.218;2023-04-30T04:02:18;34.70;;;22.17;;
78989;SDS011;68390;52.130;21.218;2023-04-30T04:04:43;32.33;;;22.08;;
78989;SDS011;68390;52.130;21.218;2023-04-30T04:07:09;31.98;;;21.20;;
78989;SDS011;68390;52.130;21.218;2023-04-30T04:09:35;34.88;;;22.38;;
78989;SDS011;68390;52.130;21.218;2023-04-30T04:12:01;36.45;;;22.55;;
78989;SDS011;68390;52.130;21.218;2023-04-30T04:14:26;27.50;;;19.20;;
78989;SDS011;68390;52.130;21.218;2023-04-30T04:16:52;27.13;;;18.55;;
78989;SDS011;68390;52.130;21.218;2023-04-30T04:19:18;29.17;;;18.95;;
78989;SDS011;68390;52.130;21.218;2023-04-30T04:21:43;28.60;;;18.33;;
78989;SDS011;68390;52.130;21.218;2023-04-30T04:24:09;27.00;;;16.52;;
78989;SDS011;68390;52.130;21.218;2023-04-30T04:26:35;21.85;;;16.17;;
78989;SDS011;68390;52.130;21.218;2023-04-30T04:29:01;25.55;;;17.15;;
78989;SDS011;68390;52.130;21.218;2023-04-30T04:31:29;23.77;;;16.33;;
78989;SDS011;68390;52.130;21.218;2023-04-30T04:33:58;20.40;;;15.30;;
78989;SDS011;68390;52.130;21.218;2023-04-30T04:36:25;22.58;;;15.30;;
78989;SDS011;68390;52.130;21.218;2023-04-30T04:38:52;21.02;;;13.80;;
78989;SDS011;68390;52.130;21.218;2023-04-30T04:41:27;18.92;;;12.63;;
78989;SDS011;68390;52.130;21.218;2023-04-30T04:43:54;16.92;;;12.00;;
78989;SDS011;68390;52.130;21.218;2023-04-30T04:46:20;14.45;;;9.55;;
78989;SDS011;68390;52.130;21.218;2023-04-30T04:48:47;14.20;;;9.45;;
78989;SDS011;68390;52.130;21.218;2023-04-30T04:51:13;15.35;;;7.75;;
78989;SDS011;68390;52.130;21.218;2023-04-30T04:53:39;9.90;;;7.55;;
78989;SDS011;68390;52.130;21.218;2023-04-30T04:56:04;11.98;;;7.85;;
78989;SDS011;68390;52.130;21.218;2023-04-30T04:58:31;10.63;;;6.70;;
78989;SDS011;68390;52.130;21.218;2023-04-30T05:00:57;9.95;;;6.35;;
78989;SDS011;68390;52.130;21.218;2023-04-30T05:03:24;8.80;;;6.25;;
78989;SDS011;68390;52.130;21.218;2023-04-30T05:05:50;9.82;;;6.05;;
78989;SDS011;68390;52.130;21.218;2023-04-30T05:08:16;8.27;;;6.15;;
78989;SDS011;68390;52.130;21.218;2023-04-30T05:10:42;10.52;;;6.38;;
78989;SDS011;68390;52.130;21.218;2023-04-30T05:13:08;7.82;;;5.60;;
78989;SDS011;68390;52.130;21.218;2023-04-30T05:15:33;10.23;;;5.75;;
78989;SDS011;68390;52.130;21.218;2023-04-30T05:17:59;11.70;;;6.05;;
78989;SDS011;68390;52.130;21.218;2023-04-30T05:20:24;13.30;;;7.03;;
78989;SDS011;68390;52.130;21.218;2023-04-30T05:22:50;10.23;;;6.07;;
78989;SDS011;68390;52.130;21.218;2023-04-30T05:25:16;8.98;;;6.53;;
78989;SDS011;68390;52.130;21.218;2023-04-30T05:27:41;10.45;;;5.88;;
78989;SDS011;68390;52.130;21.218;2023-04-30T05:30:07;9.95;;;6.00;;
78989;SDS011;68390;52.130;21.218;2023-04-30T05:32:33;9.82;;;5.80;;
78989;SDS011;68390;52.130;21.218;2023-04-30T05:34:59;10.18;;;5.65;;
78989;SDS011;68390;52.130;21.218;2023-04-30T05:37:25;11.68;;;6.45;;
78989;SDS011;68390;52.130;21.218;2023-04-30T05:39:50;9.48;;;5.78;;
78989;SDS011;68390;52.130;21.218;2023-04-30T05:42:18;10.60;;;6.30;;
78989;SDS011;68390;52.130;21.218;2023-04-30T05:44:44;10.82;;;6.03;;
78989;SDS011;68390;52.130;21.218;2023-04-30T05:47:09;8.93;;;6.40;;
78989;SDS011;68390;52.130;21.218;2023-04-30T05:49:35;9.63;;;6.25;;
78989;SDS011;68390;52.130;21.218;2023-04-30T05:52:00;11.98;;;6.68;;
78989;SDS011;68390;52.130;21.218;2023-04-30T05:54:27;10.82;;;7.38;;
78989;SDS011;68390;52.130;21.218;2023-04-30T05:56:53;13.25;;;7.55;;
78989;SDS011;68390;52.130;21.218;2023-04-30T05:59:19;12.18;;;7.47;;
78989;SDS011;68390;52.130;21.218;2023-04-30T06:01:44;12.27;;;7.28;;
78989;SDS011;68390;52.130;21.218;2023-04-30T06:04:10;14.25;;;8.25;;
78989;SDS011;68390;52.130;21.218;2023-04-30T06:06:35;11.65;;;6.60;;
78989;SDS011;68390;52.130;21.218;2023-04-30T06:09:01;11.05;;;7.45;;
78989;SDS011;68390;52.130;21.218;2023-04-30T06:11:26;11.27;;;8.05;;
78989;SDS011;68390;52.130;21.218;2023-04-30T06:13:54;11.75;;;7.88;;
78989;SDS011;68390;52.130;21.218;2023-04-30T06:16:20;13.48;;;8.45;;
78989;SDS011;68390;52.130;21.218;2023-04-30T06:18:45;13.57;;;8.25;;
78989;SDS011;68390;52.130;21.218;2023-04-30T06:21:11;12.40;;;7.32;;
78989;SDS011;68390;52.130;21.218;2023-04-30T06:23:36;12.80;;;7.35;;
78989;SDS011;68390;52.130;21.218;2023-04-30T06:26:01;12.13;;;7.53;;
78989;SDS011;68390;52.130;21.218;2023-04-30T06:28:27;12.60;;;7.40;;
78989;SDS011;68390;52.130;21.218;2023-04-30T06:30:52;11.23;;;8.02;;
78989;SDS011;68390;52.130;21.218;2023-04-30T06:33:19;11.18;;;6.85;;
78989;SDS011;68390;52.130;21.218;2023-04-30T06:35:44;12.60;;;7.82;;
78989;SDS011;68390;52.130;21.218;2023-04-30T06:38:10;13.15;;;7.43;;
78989;SDS011;68390;52.130;21.218;2023-04-30T06:40:36;9.82;;;7.03;;
78989;SDS011;68390;52.130;21.218;2023-04-30T06:43:01;9.30;;;6.95;;
78989;SDS011;68390;52.130;21.218;2023-04-30T06:45:27;11.65;;;6.00;;
78989;SDS011;68390;52.130;21.218;2023-04-30T06:47:53;10.40;;;7.55;;
78989;SDS011;68390;52.130;21.218;2023-04-30T06:50:18;9.50;;;6.28;;
78989;SDS011;68390;52.130;21.218;2023-04-30T06:52:45;7.80;;;6.13;;
78989;SDS011;68390;52.130;21.218;2023-04-30T06:55:10;11.07;;;5.97;;
78989;SDS011;68390;52.130;21.218;2023-04-30T06:57:36;9.15;;;5.85;;
78989;SDS011;68390;52.130;21.218;2023-04-30T07:00:03;7.85;;;5.88;;
78989;SDS011;68390;52.130;21.218;2023-04-30T07:02:29;8.80;;;5.78;;
78989;SDS011;68390;52.130;21.218;2023-04-30T07:04:55;10.27;;;5.90;;
78989;SDS011;68390;52.130;21.218;2023-04-30T07:07:20;10.67;;;5.13;;
78989;SDS011;68390;52.130;21.218;2023-04-30T07:09:47;9.68;;;5.18;;
78989;SDS011;68390;52.130;21.218;2023-04-30T07:12:12;7.50;;;5.18;;
78989;SDS011;68390;52.130;21.218;2023-04-30T07:14:38;8.63;;;4.38;;
78989;SDS011;68390;52.130;21.218;2023-04-30T07:17:03;6.82;;;3.95;;
78989;SDS011;68390;52.130;21.218;2023-04-30T07:19:29;9.13;;;3.97;;
78989;SDS011;68390;52.130;21.218;2023-04-30T07:21:54;9.25;;;4.40;;
78989;SDS011;68390;52.130;21.218;2023-04-30T07:24:19;6.25;;;3.88;;
78989;SDS011;68390;52.130;21.218;2023-04-30T07:26:45;10.02;;;7.28;;
78989;SDS011;68390;52.130;21.218;2023-04-30T07:29:10;10.75;;;7.10;;
78989;SDS011;68390;52.130;21.218;2023-04-30T07:31:36;10.02;;;5.30;;
78989;SDS011;68390;52.130;21.218;2023-04-30T07:34:01;20.77;;;15.77;;
78989;SDS011;68390;52.130;21.218;2023-04-30T07:36:26;10.75;;;6.15;;
78989;SDS011;68390;52.130;21.218;2023-04-30T07:38:52;7.93;;;4.22;;
78989;SDS011;68390;52.130;21.218;2023-04-30T07:41:17;7.65;;;4.20;;
78989;SDS011;68390;52.130;21.218;2023-04-30T07:43:43;6.38;;;4.57;;
78989;SDS011;68390;52.130;21.218;2023-04-30T07:46:08;8.10;;;4.32;;
78989;SDS011;68390;52.130;21.218;2023-04-30T07:48:34;12.00;;;6.00;;
78989;SDS011;68390;52.130;21.218;2023-04-30T07:50:59;20.30;;;11.88;;
78989;SDS011;68390;52.130;21.218;2023-04-30T07:53:25;11.00;;;6.35;;
78989;SDS011;68390;52.130;21.218;2023-04-30T07:55:50;10.63;;;7.07;;
78989;SDS011;68390;52.130;21.218;2023-04-30T07:58:16;12.45;;;7.22;;
78989;SDS011;68390;52.130;21.218;2023-04-30T08:00:41;14.20;;;7.10;;
78989;SDS011;68390;52.130;21.218;2023-04-30T08:03:06;9.90;;;5.43;;
78989;SDS011;68390;52.130;21.218;2023-04-30T08:05:32;10.18;;;6.20;;
78989;SDS011;68390;52.130;21.218;2023-04-30T08:07:57;12.68;;;6.47;;
78989;SDS011;68390;52.130;21.218;2023-04-30T08:10:23;12.73;;;6.90;;
78989;SDS011;68390;52.130;21.218;2023-04-30T08:12:49;8.10;;;4.80;;
78989;SDS011;68390;52.130;21.218;2023-04-30T08:15:14;11.98;;;6.38;;
78989;SDS011;68390;52.130;21.218;2023-04-30T08:17:40;9.90;;;5.10;;
78989;SDS011;68390;52.130;21.218;2023-04-30T08:20:05;8.30;;;5.30;;
78989;SDS011;68390;52.130;21.218;2023-04-30T08:22:31;7.13;;;4.80;;
78989;SDS011;68390;52.130;21.218;2023-04-30T08:24:57;8.77;;;5.15;;
78989;SDS011;68390;52.130;21.218;2023-04-30T08:27:25;9.23;;;5.25;;
78989;SDS011;68390;52.130;21.218;2023-04-30T08:29:51;11.57;;;6.43;;
78989;SDS011;68390;52.130;21.218;2023-04-30T08:32:17;8.35;;;4.30;;
78989;SDS011;68390;52.130;21.218;2023-04-30T08:34:43;59.20;;;25.50;;
78989;SDS011;68390;52.130;21.218;2023-04-30T08:37:08;12.70;;;7.43;;
78989;SDS011;68390;52.130;21.218;2023-04-30T08:39:34;12.68;;;7.43;;
78989;SDS011;68390;52.130;21.218;2023-04-30T08:42:03;9.87;;;6.27;;
78989;SDS011;68390;52.130;21.218;2023-04-30T08:44:33;9.60;;;5.43;;
78989;SDS011;68390;52.130;21.218;2023-04-30T08:47:00;8.82;;;3.88;;
78989;SDS011;68390;52.130;21.218;2023-04-30T08:49:27;12.60;;;5.13;;
78989;SDS011;68390;52.130;21.218;2023-04-30T08:51:56;7.15;;;4.20;;
78989;SDS011;68390;52.130;21.218;2023-04-30T08:54:24;7.30;;;4.22;;
78989;SDS011;68390;52.130;21.218;2023-04-30T08:56:50;7.20;;;4.40;;
78989;SDS011;68390;52.130;21.218;2023-04-30T08:59:15;8.15;;;3.60;;
78989;SDS011;68390;52.130;21.218;2023-04-30T09:01:41;8.57;;;4.80;;
78989;SDS011;68390;52.130;21.218;2023-04-30T09:04:06;7.53;;;4.30;;
78989;SDS011;68390;52.130;21.218;2023-04-30T09:06:32;11.52;;;4.50;;
78989;SDS011;68390;52.130;21.218;2023-04-30T09:08:57;9.15;;;5.65;;
78989;SDS011;68390;52.130;21.218;2023-04-30T09:11:33;9.73;;;4.38;;
78989;SDS011;68390;52.130;21.218;2023-04-30T09:13:59;18.77;;;10.43;;
78989;SDS011;68390;52.130;21.218;2023-04-30T09:16:26;9.00;;;5.22;;
78989;SDS011;68390;52.130;21.218;2023-04-30T09:19:08;10.30;;;4.70;;
78989;SDS011;68390;52.130;21.218;2023-04-30T09:21:35;8.35;;;4.25;;
78989;SDS011;68390;52.130;21.218;2023-04-30T09:24:02;6.60;;;3.95;;
78989;SDS011;68390;52.130;21.218;2023-04-30T09:26:33;12.48;;;6.20;;
78989;SDS011;68390;52.130;21.218;2023-04-30T09:29:02;7.32;;;3.60;;
78989;SDS011;68390;52.130;21.218;2023-04-30T09:31:32;7.15;;;3.75;;
78989;SDS011;68390;52.130;21.218;2023-04-30T09:33:59;7.78;;;3.65;;
78989;SDS011;68390;52.130;21.218;2023-04-30T09:36:24;8.63;;;4.30;;
78989;SDS011;68390;52.130;21.218;2023-04-30T09:38:49;8.27;;;4.47;;
78989;SDS011;68390;52.130;21.218;2023-04-30T09:43:48;5.97;;;3.50;;
78989;SDS011;68390;52.130;21.218;2023-04-30T09:46:13;7.38;;;4.00;;
78989;SDS011;68390;52.130;21.218;2023-04-30T09:48:42;6.53;;;4.00;;
78989;SDS011;68390;52.130;21.218;2023-04-30T09:51:08;8.15;;;4.47;;
78989;SDS011;68390;52.130;21.218;2023-04-30T09:53:35;7.30;;;4.07;;
78989;SDS011;68390;52.130;21.218;2023-04-30T09:56:02;7.22;;;3.83;;
78989;SDS011;68390;52.130;21.218;2023-04-30T09:58:31;8.88;;;3.38;;
78989;SDS011;68390;52.130;21.218;2023-04-30T10:01:03;6.97;;;3.20;;
78989;SDS011;68390;52.130;21.218;2023-04-30T10:03:30;6.55;;;2.92;;
78989;SDS011;68390;52.130;21.218;2023-04-30T10:05:57;7.00;;;3.20;;
78989;SDS011;68390;52.130;21.218;2023-04-30T10:08:27;4.90;;;2.65;;
78989;SDS011;68390;52.130;21.218;2023-04-30T10:10:58;6.57;;;3.00;;
78989;SDS011;68390;52.130;21.218;2023-04-30T10:13:29;5.13;;;2.85;;
78989;SDS011;68390;52.130;21.218;2023-04-30T10:16:02;7.10;;;3.17;;
78989;SDS011;68390;52.130;21.218;2023-04-30T10:18:33;5.60;;;3.00;;
78989;SDS011;68390;52.130;21.218;2023-04-30T10:23:28;10.48;;;3.10;;
78989;SDS011;68390;52.130;21.218;2023-04-30T10:25:54;5.75;;;2.83;;
78989;SDS011;68390;52.130;21.218;2023-04-30T10:28:22;6.18;;;3.42;;
78989;SDS011;68390;52.130;21.218;2023-04-30T10:30:47;6.13;;;3.30;;
78989;SDS011;68390;52.130;21.218;2023-04-30T10:33:22;6.45;;;2.72;;
78989;SDS011;68390;52.130;21.218;2023-04-30T10:35:57;4.82;;;2.85;;
78989;SDS011;68390;52.130;21.218;2023-04-30T10:38:26;6.60;;;2.80;;
78989;SDS011;68390;52.130;21.218;2023-04-30T10:40:56;5.65;;;2.80;;
78989;SDS011;68390;52.130;21.218;2023-04-30T10:43:24;7.28;;;3.13;;
78989;SDS011;68390;52.130;21.218;2023-04-30T10:45:50;6.78;;;3.30;;
78989;SDS011;68390;52.130;21.218;2023-04-30T10:48:16;5.05;;;2.90;;
78989;SDS011;68390;52.130;21.218;2023-04-30T10:50:49;5.90;;;2.92;;
78989;SDS011;68390;52.130;21.218;2023-04-30T10:53:20;4.25;;;2.55;;
78989;SDS011;68390;52.130;21.218;2023-04-30T10:55:57;5.68;;;2.63;;
78989;SDS011;68390;52.130;21.218;2023-04-30T10:58:30;7.25;;;2.47;;
78989;SDS011;68390;52.130;21.218;2023-04-30T11:01:02;6.95;;;2.60;;
78989;SDS011;68390;52.130;21.218;2023-04-30T11:03:29;4.57;;;2.50;;
78989;SDS011;68390;52.130;21.218;2023-04-30T11:05:57;5.00;;;2.83;;
78989;SDS011;68390;52.130;21.218;2023-04-30T11:08:36;5.03;;;2.42;;
78989;SDS011;68390;52.130;21.218;2023-04-30T11:11:03;6.57;;;2.45;;
78989;SDS011;68390;52.130;21.218;2023-04-30T11:13:38;6.03;;;2.63;;
78989;SDS011;68390;52.130;21.218;2023-04-30T11:16:08;3.85;;;2.30;;
78989;SDS011;68390;52.130;21.218;2023-04-30T11:18:39;5.00;;;2.30;;
78989;SDS011;68390;52.130;21.218;2023-04-30T11:21:09;3.65;;;1.90;;
78989;SDS011;68390;52.130;21.218;2023-04-30T11:23:36;4.93;;;2.13;;
78989;SDS011;68390;52.130;21.218;2023-04-30T11:26:06;5.05;;;2.22;;
78989;SDS011;68390;52.130;21.218;2023-04-30T11:28:32;6.07;;;2.45;;
78989;SDS011;68390;52.130;21.218;2023-04-30T11:30:59;7.30;;;2.42;;
78989;SDS011;68390;52.130;21.218;2023-04-30T11:33:26;6.25;;;2.10;;
78989;SDS011;68390;52.130;21.218;2023-04-30T11:35:54;4.57;;;2.20;;
78989;SDS011;68390;52.130;21.218;2023-04-30T11:38:21;5.00;;;2.20;;
78989;SDS011;68390;52.130;21.218;2023-04-30T11:40:54;3.65;;;2.00;;
78989;SDS011;68390;52.130;21.218;2023-04-30T11:43:21;4.38;;;2.00;;
78989;SDS011;68390;52.130;21.218;2023-04-30T11:46:06;6.68;;;1.98;;
78989;SDS011;68390;52.130;21.218;2023-04-30T11:48:32;4.22;;;2.03;;
78989;SDS011;68390;52.130;21.218;2023-04-30T11:51:13;5.53;;;2.13;;
78989;SDS011;68390;52.130;21.218;2023-04-30T11:53:51;3.97;;;2.10;;
78989;SDS011;68390;52.130;21.218;2023-04-30T11:56:21;5.03;;;2.30;;
78989;SDS011;68390;52.130;21.218;2023-04-30T11:58:48;4.68;;;2.70;;
78989;SDS011;68390;52.130;21.218;2023-04-30T12:01:15;6.00;;;2.17;;
78989;SDS011;68390;52.130;21.218;2023-04-30T12:03:44;4.45;;;1.90;;
78989;SDS011;68390;52.130;21.218;2023-04-30T12:06:15;4.97;;;2.20;;
78989;SDS011;68390;52.130;21.218;2023-04-30T12:08:46;4.10;;;2.30;;
78989;SDS011;68390;52.130;21.218;2023-04-30T12:11:21;5.18;;;2.30;;
78989;SDS011;68390;52.130;21.218;2023-04-30T12:13:51;4.93;;;2.03;;
78989;SDS011;68390;52.130;21.218;2023-04-30T12:16:17;6.03;;;2.45;;
78989;SDS011;68390;52.130;21.218;2023-04-30T12:18:42;3.80;;;2.25;;
78989;SDS011;68390;52.130;21.218;2023-04-30T12:21:07;5.70;;;2.33;;
78989;SDS011;68390;52.130;21.218;2023-04-30T12:23:33;6.97;;;2.58;;
78989;SDS011;68390;52.130;21.218;2023-04-30T12:25:59;5.55;;;2.17;;
78989;SDS011;68390;52.130;21.218;2023-04-30T12:28:24;7.30;;;2.92;;
78989;SDS011;68390;52.130;21.218;2023-04-30T12:30:51;6.10;;;2.30;;
78989;SDS011;68390;52.130;21.218;2023-04-30T12:33:17;5.47;;;2.08;;
78989;SDS011;68390;52.130;21.218;2023-04-30T12:35:43;5.03;;;1.98;;
78989;SDS011;68390;52.130;21.218;2023-04-30T12:38:08;4.80;;;2.10;;
78989;SDS011;68390;52.130;21.218;2023-04-30T12:40:34;6.28;;;2.40;;
78989;SDS011;68390;52.130;21.218;2023-04-30T12:45:46;7.30;;;2.58;;
78989;SDS011;68390;52.130;21.218;2023-04-30T12:48:16;4.40;;;2.30;;
78989;SDS011;68390;52.130;21.218;2023-04-30T12:50:46;5.90;;;2.60;;
78989;SDS011;68390;52.130;21.218;2023-04-30T12:53:13;6.45;;;2.50;;
78989;SDS011;68390;52.130;21.218;2023-04-30T12:55:38;5.85;;;2.17;;
78989;SDS011;68390;52.130;21.218;2023-04-30T12:58:07;6.40;;;2.40;;
78989;SDS011;68390;52.130;21.218;2023-04-30T13:00:41;6.90;;;2.35;;
78989;SDS011;68390;52.130;21.218;2023-04-30T13:03:11;7.53;;;2.60;;
78989;SDS011;68390;52.130;21.218;2023-04-30T13:05:38;4.25;;;2.08;;
78989;SDS011;68390;52.130;21.218;2023-04-30T13:08:05;4.50;;;2.00;;
78989;SDS011;68390;52.130;21.218;2023-04-30T13:10:31;4.00;;;2.35;;
78989;SDS011;68390;52.130;21.218;2023-04-30T13:12:57;4.22;;;2.40;;
78989;SDS011;68390;52.130;21.218;2023-04-30T13:15:23;4.53;;;2.03;;
78989;SDS011;68390;52.130;21.218;2023-04-30T13:17:49;4.65;;;2.13;;
78989;SDS011;68390;52.130;21.218;2023-04-30T13:20:15;5.15;;;2.47;;
78989;SDS011;68390;52.130;21.218;2023-04-30T13:22:40;5.05;;;1.98;;
78989;SDS011;68390;52.130;21.218;2023-04-30T13:25:06;3.97;;;1.73;;
78989;SDS011;68390;52.130;21.218;2023-04-30T13:27:31;5.78;;;2.08;;
78989;SDS011;68390;52.130;21.218;2023-04-30T13:29:58;4.38;;;2.13;;
78989;SDS011;68390;52.130;21.218;2023-04-30T13:32:24;4.25;;;2.22;;
78989;SDS011;68390;52.130;21.218;2023-04-30T13:34:49;3.88;;;2.13;;
78989;SDS011;68390;52.130;21.218;2023-04-30T13:37:18;5.18;;;2.20;;
78989;SDS011;68390;52.130;21.218;2023-04-30T13:39:44;5.05;;;2.17;;
78989;SDS011;68390;52.130;21.218;2023-04-30T13:42:10;5.85;;;2.22;;
78989;SDS011;68390;52.130;21.218;2023-04-30T13:44:37;3.55;;;2.00;;
78989;SDS011;68390;52.130;21.218;2023-04-30T13:47:03;6.68;;;2.33;;
78989;SDS011;68390;52.130;21.218;2023-04-30T13:49:28;4.43;;;2.10;;
78989;SDS011;68390;52.130;21.218;2023-04-30T13:51:53;5.83;;;2.20;;
78989;SDS011;68390;52.130;21.218;2023-04-30T13:54:19;5.03;;;2.20;;
78989;SDS011;68390;52.130;21.218;2023-04-30T13:56:44;5.70;;;2.30;;
78989;SDS011;68390;52.130;21.218;2023-04-30T13:59:10;5.88;;;2.10;;
78989;SDS011;68390;52.130;21.218;2023-04-30T14:01:35;3.45;;;1.90;;
78989;SDS011;68390;52.130;21.218;2023-04-30T14:04:01;5.10;;;2.20;;
78989;SDS011;68390;52.130;21.218;2023-04-30T14:06:26;5.45;;;2.15;;
78989;SDS011;68390;52.130;21.218;2023-04-30T14:08:53;6.90;;;2.30;;
78989;SDS011;68390;52.130;21.218;2023-04-30T14:11:18;5.50;;;2.20;;
78989;SDS011;68390;52.130;21.218;2023-04-30T14:13:44;3.90;;;1.83;;
78989;SDS011;68390;52.130;21.218;2023-04-30T14:16:09;6.77;;;2.47;;
78989;SDS011;68390;52.130;21.218;2023-04-30T14:18:35;3.45;;;1.83;;
78989;SDS011;68390;52.130;21.218;2023-04-30T14:21:00;3.90;;;1.77;;
78989;SDS011;68390;52.130;21.218;2023-04-30T14:23:26;3.50;;;1.70;;
78989;SDS011;68390;52.130;21.218;2023-04-30T14:25:53;5.32;;;2.13;;
78989;SDS011;68390;52.130;21.218;2023-04-30T14:28:18;4.68;;;2.33;;
78989;SDS011;68390;52.130;21.218;2023-04-30T14:30:44;5.47;;;2.60;;
78989;SDS011;68390;52.130;21.218;2023-04-30T14:33:09;4.43;;;1.90;;
78989;SDS011;68390;52.130;21.218;2023-04-30T14:35:36;5.85;;;2.08;;
78989;SDS011;68390;52.130;21.218;2023-04-30T14:38:01;5.22;;;1.95;;
78989;SDS011;68390;52.130;21.218;2023-04-30T14:40:27;4.93;;;2.00;;
78989;SDS011;68390;52.130;21.218;2023-04-30T14:42:53;9.32;;;2.10;;
78989;SDS011;68390;52.130;21.218;2023-04-30T14:45:18;4.80;;;1.98;;
78989;SDS011;68390;52.130;21.218;2023-04-30T14:47:44;4.25;;;1.65;;
78989;SDS011;68390;52.130;21.218;2023-04-30T14:50:10;4.65;;;1.92;;